Time;durP1;ratioP1;P1;durP2;ratioP2;P2;SDS_P1;SDS_P2;PMS_P1;PMS_P2;Temp;Humidity;BMP_temperature;BMP_pressure;BME280_temperature;BME280_humidity;BME280_pressure;Samples;Min_cycle;Max_cycle;Signal;HPM_P1;HPM_P2
2022/04/22 07:57:23;;;;;;;23.23;14.65;;;11.20;98.50;;;;;;5126655;27;20368;-53
2022/04/22 07:59:50;;;;;;;22.15;14.68;;;11.20;98.30;;;;;;5109850;28;20036;-50
2022/04/22 08:02:16;;;;;;;22.90;13.20;;;11.40;98.10;;;;;;5096481;28;20479;-49
2022/04/22 08:04:43;;;;;;;28.88;13.30;;;11.60;97.60;;;;;;5089562;28;20536;-51
2022/04/22 08:07:10;;;;;;;22.92;12.85;;;11.80;97.20;;;;;;5089703;28;20127;-49
2022/04/22 08:09:52;;;;;;;21.45;13.02;;;11.90;96.90;;;;;;5085539;28;20040;-48
2022/04/22 08:12:19;;;;;;;17.38;12.25;;;12.00;96.60;;;;;;5087325;28;20041;-50
2022/04/22 08:14:46;;;;;;;22.92;12.40;;;12.10;96.50;;;;;;5087644;28;20040;-49
2022/04/22 08:17:13;;;;;;;17.33;12.25;;;12.10;96.30;;;;;;5083238;28;20544;-47
2022/04/22 08:19:43;;;;;;;17.02;11.40;;;12.10;96.20;;;;;;5090402;28;20377;-51
2022/04/22 08:22:10;;;;;;;19.60;10.95;;;12.20;95.70;;;;;;5088949;28;20047;-49
2022/04/22 08:24:37;;;;;;;16.98;11.18;;;12.30;94.90;;;;;;5095826;28;20044;-50
2022/04/22 08:27:04;;;;;;;16.98;11.02;;;12.40;95.00;;;;;;5090343;28;20424;-50
2022/04/22 08:29:30;;;;;;;20.73;11.57;;;12.60;94.60;;;;;;5090074;28;20086;-53
2022/04/22 08:31:57;;;;;;;16.48;10.70;;;12.60;94.40;;;;;;5089893;28;20202;-48
2022/04/22 08:34:24;;;;;;;14.85;11.02;;;12.60;94.50;;;;;;5090131;28;20040;-46
2022/04/22 08:36:51;;;;;;;15.15;11.23;;;12.60;94.40;;;;;;5089605;28;20051;-49
2022/04/22 08:39:17;;;;;;;16.08;10.43;;;12.60;94.40;;;;;;5090023;28;20125;-49
2022/04/22 08:41:44;;;;;;;15.20;11.18;;;12.60;94.00;;;;;;5090500;28;20516;-47
2022/04/22 08:44:11;;;;;;;15.50;11.45;;;12.60;94.30;;;;;;5089844;28;20545;-49
2022/04/22 08:52:09;;;;;;;19.48;10.82;;;12.50;94.20;;;;;;5089622;28;20067;-47
2022/04/22 08:54:35;;;;;;;17.65;10.95;;;12.50;94.40;;;;;;5089863;28;20066;-55
2022/04/22 08:57:02;;;;;;;15.80;10.80;;;12.60;94.00;;;;;;5089571;28;20084;-49
2022/04/22 08:59:29;;;;;;;13.35;9.93;;;12.70;93.80;;;;;;5090065;28;20064;-52
2022/04/22 09:01:56;;;;;;;16.15;10.18;;;12.80;93.40;;;;;;5076002;28;20099;-52
2022/04/22 09:04:23;;;;;;;15.13;10.98;;;12.90;93.70;;;;;;5081734;28;20123;-51
2022/04/22 09:06:50;;;;;;;18.20;10.93;;;12.90;93.50;;;;;;5086505;28;20040;-54
2022/04/22 09:09:17;;;;;;;18.65;11.13;;;12.80;93.70;;;;;;5074031;28;20045;-51
2022/04/22 09:11:44;;;;;;;12.93;9.63;;;12.90;93.80;;;;;;5075441;28;20047;-49
2022/04/22 09:14:11;;;;;;;12.43;9.57;;;13.00;93.70;;;;;;5075887;28;20098;-51
2022/04/22 09:16:37;;;;;;;13.00;9.85;;;13.00;93.10;;;;;;5074365;28;20102;-48
2022/04/22 09:19:04;;;;;;;17.27;9.95;;;13.00;93.30;;;;;;5075120;28;20483;-51
2022/04/22 09:21:31;;;;;;;15.55;9.95;;;13.00;93.30;;;;;;5075622;28;20041;-49
2022/04/22 09:23:58;;;;;;;18.45;9.82;;;13.00;93.60;;;;;;5074961;28;20437;-50
2022/04/22 09:26:25;;;;;;;17.38;9.65;;;13.00;93.60;;;;;;5074778;28;20070;-54
2022/04/22 09:28:52;;;;;;;15.50;10.27;;;13.00;93.70;;;;;;5074008;28;20064;-52
2022/04/22 09:31:19;;;;;;;15.15;9.55;;;13.00;93.80;;;;;;5074553;28;20048;-52
2022/04/22 09:33:47;;;;;;;22.25;9.55;;;13.10;93.70;;;;;;5074128;28;20391;-47
2022/04/22 17:22:46;;;;;;;14.43;5.93;;;13.70;85.00;;;;;;5090389;28;20052;-51
2022/04/22 17:25:13;;;;;;;12.02;4.72;;;13.70;84.90;;;;;;5090607;28;20443;-53
2022/04/22 17:27:40;;;;;;;12.20;5.00;;;13.70;84.80;;;;;;5090816;28;20044;-52
2022/04/22 17:30:07;;;;;;;14.40;4.88;;;13.80;85.20;;;;;;5090381;28;20044;-49
2022/04/22 17:32:34;;;;;;;14.13;5.30;;;13.80;84.80;;;;;;5090163;28;20557;-50
2022/04/22 17:35:00;;;;;;;9.85;4.63;;;13.80;85.20;;;;;;5090332;28;20430;-49
2022/04/22 17:37:27;;;;;;;12.52;4.82;;;13.80;84.90;;;;;;5094509;28;20072;-46
2022/04/22 17:39:54;;;;;;;10.68;4.80;;;13.80;84.60;;;;;;5090182;28;20036;-51
2022/04/22 17:42:20;;;;;;;12.13;4.90;;;13.80;85.20;;;;;;5090073;28;20041;-50
2022/04/22 17:44:47;;;;;;;10.85;5.43;;;13.80;84.70;;;;;;5090599;28;20060;-53
2022/04/22 17:47:17;;;;;;;13.23;4.93;;;13.80;85.00;;;;;;5090176;28;20033;-50
2022/04/22 17:49:48;;;;;;;11.20;5.03;;;13.90;84.90;;;;;;5102870;28;20040;-51
2022/04/22 17:52:15;;;;;;;14.38;4.47;;;13.80;84.50;;;;;;5089743;28;20037;-51
2022/04/22 17:54:42;;;;;;;12.85;4.47;;;13.70;84.50;;;;;;5089901;28;20407;-48
2022/04/22 17:57:08;;;;;;;13.90;4.13;;;13.70;85.10;;;;;;5090142;28;20044;-49
2022/04/22 17:59:38;;;;;;;14.00;4.45;;;13.70;84.80;;;;;;5088616;28;20082;-50
2022/04/22 18:02:08;;;;;;;12.38;4.65;;;13.70;84.70;;;;;;5089139;28;20040;-49
2022/04/22 18:04:35;;;;;;;10.52;4.05;;;13.70;84.40;;;;;;5089956;28;20052;-51
2022/04/22 18:07:02;;;;;;;11.55;3.70;;;13.70;84.30;;;;;;5092910;28;20051;-49
2022/04/22 18:09:29;;;;;;;12.13;3.97;;;13.60;84.30;;;;;;5092113;28;20127;-50
2022/04/22 18:11:56;;;;;;;10.95;3.47;;;13.60;84.20;;;;;;5089666;28;20048;-50
2022/04/22 18:17:08;;;;;;;10.85;4.20;;;13.50;83.90;;;;;;5089129;28;20040;-52
2022/04/22 18:19:35;;;;;;;10.00;4.40;;;13.50;84.10;;;;;;5089898;28;20072;-51
2022/04/22 18:22:01;;;;;;;9.20;3.65;;;13.50;84.00;;;;;;5088352;28;20459;-51
2022/04/22 18:24:28;;;;;;;9.10;3.33;;;13.50;84.30;;;;;;5081702;28;20040;-51
2022/04/22 18:26:56;;;;;;;8.80;2.88;;;13.50;84.40;;;;;;5072876;28;20053;-47
2022/04/22 18:29:22;;;;;;;11.95;3.60;;;13.40;84.90;;;;;;5075705;28;20075;-49
2022/04/22 18:31:49;;;;;;;11.75;3.10;;;13.40;85.00;;;;;;5080058;28;20067;-50
2022/04/22 18:34:16;;;;;;;9.15;3.22;;;13.40;85.30;;;;;;5075846;28;20480;-49
2022/04/22 18:36:43;;;;;;;12.48;3.47;;;13.40;85.50;;;;;;5079415;28;20054;-53
2022/04/22 18:39:10;;;;;;;8.85;3.40;;;13.30;85.70;;;;;;5076979;28;20457;-48
2022/04/22 18:41:37;;;;;;;8.30;3.25;;;13.30;85.30;;;;;;5075769;28;20032;-53
2022/04/22 18:44:03;;;;;;;10.00;3.28;;;13.20;85.20;;;;;;5075512;28;20048;-49
2022/04/22 18:46:30;;;;;;;8.02;3.28;;;13.20;85.80;;;;;;5080449;28;20048;-48
2022/04/22 18:48:57;;;;;;;8.18;3.20;;;13.20;85.90;;;;;;5075743;28;20045;-48
2022/04/22 18:51:26;;;;;;;11.98;3.20;;;13.20;85.90;;;;;;5075530;28;20102;-50
2022/04/22 18:53:53;;;;;;;13.52;3.50;;;13.20;85.40;;;;;;5075973;28;20036;-50
2022/04/22 18:56:20;;;;;;;11.00;3.28;;;13.20;85.50;;;;;;5075336;28;20044;-50
2022/04/22 18:58:50;;;;;;;7.00;3.00;;;13.20;85.30;;;;;;5074053;28;20076;-50
2022/04/22 19:01:17;;;;;;;13.20;3.20;;;13.20;85.40;;;;;;5075309;28;20032;-51
2022/04/22 19:03:44;;;;;;;10.15;3.35;;;13.20;85.00;;;;;;5075370;28;20412;-49
2022/04/22 19:06:11;;;;;;;9.20;3.10;;;13.10;84.80;;;;;;5078068;28;20055;-48
2022/04/22 19:08:38;;;;;;;13.77;3.60;;;13.10;85.30;;;;;;5075358;28;20052;-49
2022/04/22 19:11:04;;;;;;;9.40;3.22;;;13.10;84.80;;;;;;5075040;28;20471;-50
2022/04/22 19:13:32;;;;;;;14.60;3.50;;;13.10;85.10;;;;;;5074674;28;20503;-48
2022/04/22 19:16:00;;;;;;;10.60;3.25;;;13.10;85.30;;;;;;5078333;28;20036;-49
2022/04/22 19:18:27;;;;;;;10.23;3.13;;;13.20;85.60;;;;;;5074925;28;20463;-47
2022/04/22 19:20:55;;;;;;;7.88;3.40;;;13.20;85.60;;;;;;5075075;28;20033;-53
2022/04/22 19:23:21;;;;;;;11.85;3.80;;;13.10;85.60;;;;;;5078551;28;20422;-52
2022/04/22 19:25:48;;;;;;;10.65;3.42;;;13.10;85.50;;;;;;5074803;28;20128;-50
2022/04/22 19:28:15;;;;;;;6.32;2.88;;;13.10;85.80;;;;;;5074813;28;20036;-49
2022/04/22 19:30:42;;;;;;;9.38;3.17;;;13.10;86.00;;;;;;5079417;28;20445;-47
2022/04/22 19:33:14;;;;;;;9.43;3.22;;;13.10;85.90;;;;;;5074659;28;20480;-49
2022/04/22 19:35:40;;;;;;;10.35;2.95;;;13.10;85.90;;;;;;5074172;28;20451;-48
2022/04/22 19:40:52;;;;;;;10.02;3.28;;;12.90;86.10;;;;;;5073419;28;20094;-48
2022/04/22 19:43:19;;;;;;;12.75;3.50;;;12.80;86.60;;;;;;5071977;28;20060;-49
2022/04/22 19:45:46;;;;;;;10.50;3.38;;;12.80;86.50;;;;;;5064416;28;20044;-54
2022/04/22 19:48:13;;;;;;;10.60;3.35;;;12.80;86.80;;;;;;5070252;28;20032;-47
2022/04/22 19:50:40;;;;;;;8.98;3.25;;;12.70;87.10;;;;;;5068511;28;21286;-50
2022/04/22 19:53:07;;;;;;;13.45;4.03;;;12.70;87.40;;;;;;5071536;28;20041;-53
2022/04/22 19:55:34;;;;;;;13.60;3.80;;;12.70;87.60;;;;;;5073449;28;20056;-54
2022/04/22 19:58:00;;;;;;;12.77;3.75;;;12.60;88.10;;;;;;5066537;28;20040;-52
2022/04/22 20:00:29;;;;;;;12.10;3.33;;;12.60;88.50;;;;;;5068697;28;20040;-50
2022/04/22 20:02:56;;;;;;;8.55;3.60;;;12.50;88.90;;;;;;5071716;28;20391;-51
2022/04/22 20:05:26;;;;;;;11.40;3.67;;;12.40;89.20;;;;;;5065362;28;20076;-51
2022/04/22 20:07:53;;;;;;;13.60;3.85;;;12.40;89.60;;;;;;5071931;28;20071;-48
2022/04/22 20:10:21;;;;;;;12.38;3.60;;;12.40;89.70;;;;;;5066806;28;20047;-50
2022/04/22 20:12:48;;;;;;;13.75;4.25;;;12.40;89.90;;;;;;5073382;28;20395;-47
2022/04/22 20:15:15;;;;;;;9.63;3.78;;;12.30;90.10;;;;;;5067105;28;20037;-50
2022/04/22 20:17:42;;;;;;;11.88;3.75;;;12.30;90.30;;;;;;5068304;28;20048;-46
2022/04/22 20:20:10;;;;;;;10.70;4.07;;;12.30;90.30;;;;;;5070818;28;20549;-47
2022/04/22 20:22:36;;;;;;;11.93;4.00;;;12.20;90.50;;;;;;5073499;28;20068;-46
2022/04/22 20:25:03;;;;;;;12.45;4.00;;;12.30;90.50;;;;;;5066715;28;20499;-48
2022/04/22 20:27:30;;;;;;;13.63;3.83;;;12.30;90.50;;;;;;5069646;28;20086;-49
2022/04/22 20:29:57;;;;;;;11.05;4.30;;;12.30;90.60;;;;;;5070135;28;20033;-52
2022/04/22 20:32:24;;;;;;;11.98;4.13;;;12.20;90.50;;;;;;5074277;28;20543;-50
2022/04/22 20:40:37;;;;;;;11.80;4.00;;;12.10;90.90;;;;;;5073274;28;20044;-49
2022/04/22 20:43:04;;;;;;;10.13;3.95;;;12.10;91.00;;;;;;5072529;28;20040;-47
2022/04/22 20:45:30;;;;;;;14.13;4.10;;;12.00;91.20;;;;;;5069263;28;20437;-46
2022/04/22 20:47:57;;;;;;;15.77;5.63;;;12.00;91.30;;;;;;5070687;28;20041;-48
2022/04/22 20:50:24;;;;;;;15.90;4.47;;;11.90;91.40;;;;;;5073407;28;20468;-50
2022/04/22 20:55:36;;;;;;;11.00;4.18;;;11.80;91.60;;;;;;5065120;28;20048;-52
2022/04/22 20:58:03;;;;;;;12.25;4.40;;;11.70;91.80;;;;;;5069027;28;20102;-48
2022/04/22 21:00:30;;;;;;;10.98;3.88;;;11.70;91.80;;;;;;5073070;28;20040;-48
2022/04/22 21:02:56;;;;;;;13.32;4.68;;;11.70;92.00;;;;;;5072897;28;20037;-49
2022/04/22 21:05:23;;;;;;;15.00;4.28;;;11.70;92.00;;;;;;5071932;28;20029;-49
2022/04/22 21:07:50;;;;;;;12.23;4.53;;;11.70;92.20;;;;;;5072683;28;20111;-50
2022/04/22 21:10:17;;;;;;;14.77;4.20;;;11.70;92.20;;;;;;5073185;28;20098;-50
2022/04/22 21:12:45;;;;;;;12.90;4.38;;;11.70;92.30;;;;;;5072924;28;20507;-50
2022/04/22 21:15:13;;;;;;;17.80;4.90;;;11.70;92.30;;;;;;5074065;28;20059;-48
2022/04/22 21:17:40;;;;;;;13.38;4.35;;;11.60;92.50;;;;;;5072262;28;20028;-53
2022/04/22 21:20:07;;;;;;;15.80;4.95;;;11.60;92.50;;;;;;5072829;28;20052;-50
2022/04/22 21:22:34;;;;;;;13.38;5.18;;;11.50;92.70;;;;;;5070921;28;20056;-52
2022/04/22 21:25:00;;;;;;;16.73;5.45;;;11.50;92.90;;;;;;5071671;28;20492;-52
2022/04/22 21:27:27;;;;;;;16.60;5.80;;;11.50;93.10;;;;;;5073055;28;20052;-53
2022/04/22 21:29:54;;;;;;;13.45;5.20;;;11.50;93.10;;;;;;5071408;28;20055;-51
2022/04/22 21:32:21;;;;;;;17.08;5.30;;;11.50;93.20;;;;;;5064734;28;20040;-50
2022/04/22 21:34:47;;;;;;;11.00;4.85;;;11.50;93.20;;;;;;5064381;28;20090;-48
2022/04/22 21:37:14;;;;;;;13.15;5.82;;;11.50;93.40;;;;;;5069683;28;20045;-49
2022/04/22 21:39:41;;;;;;;12.80;4.80;;;11.40;93.40;;;;;;5067669;28;20404;-49
2022/04/22 21:42:08;;;;;;;16.48;5.53;;;11.40;93.60;;;;;;5071429;28;20061;-47
2022/04/22 21:44:35;;;;;;;10.85;4.90;;;11.40;93.70;;;;;;5072644;28;20041;-55
2022/04/22 21:47:02;;;;;;;16.50;5.55;;;11.30;93.90;;;;;;5069752;28;20037;-46
2022/04/22 21:49:28;;;;;;;20.95;5.43;;;11.30;94.00;;;;;;5072069;28;20124;-48
2022/04/22 21:51:55;;;;;;;13.75;5.15;;;11.30;94.00;;;;;;5071648;28;20063;-50
2022/04/22 21:54:22;;;;;;;16.70;5.18;;;11.30;94.00;;;;;;5054707;28;20401;-52
2022/04/22 21:56:49;;;;;;;15.35;5.65;;;11.30;93.80;;;;;;5070757;28;20045;-48
2022/04/22 21:59:19;;;;;;;19.13;5.60;;;11.20;94.10;;;;;;5072492;28;20044;-47
2022/04/22 22:01:46;;;;;;;13.95;5.35;;;11.10;94.30;;;;;;5075712;28;20269;-48
2022/04/22 22:04:12;;;;;;;17.08;5.80;;;11.10;94.50;;;;;;5072768;28;20074;-52
2022/04/22 22:06:39;;;;;;;18.88;5.93;;;11.00;94.70;;;;;;5077177;28;20431;-51
2022/04/22 22:09:06;;;;;;;16.30;6.95;;;11.00;94.90;;;;;;5075996;28;20126;-49
2022/04/22 22:11:32;;;;;;;12.55;5.35;;;11.00;95.00;;;;;;5075151;28;20488;-49
2022/04/22 22:13:59;;;;;;;20.20;5.85;;;11.00;95.20;;;;;;5075153;28;20048;-46
2022/04/22 22:16:26;;;;;;;17.75;6.75;;;10.90;95.40;;;;;;5076082;28;20056;-50
2022/04/22 22:18:53;;;;;;;16.90;6.63;;;10.90;95.50;;;;;;5070120;28;20064;-46
2022/04/22 22:21:20;;;;;;;17.35;6.35;;;10.80;95.60;;;;;;5075035;28;20446;-50
2022/04/22 22:23:46;;;;;;;17.75;6.68;;;10.80;95.70;;;;;;5072711;28;20048;-48
2022/04/22 22:26:14;;;;;;;16.83;6.22;;;10.80;95.80;;;;;;5075806;28;20128;-47
2022/04/22 22:28:43;;;;;;;15.32;6.13;;;10.80;95.70;;;;;;5075099;28;20044;-48
2022/04/22 22:31:10;;;;;;;18.60;6.72;;;10.80;95.80;;;;;;5071686;28;20045;-47
2022/04/22 22:33:37;;;;;;;17.48;7.05;;;10.80;95.80;;;;;;5074522;28;20052;-51
2022/04/22 22:36:04;;;;;;;18.85;6.30;;;10.80;96.00;;;;;;5075806;28;20403;-50
2022/04/22 22:38:31;;;;;;;25.90;6.95;;;10.70;96.20;;;;;;5072542;28;20041;-50
2022/04/22 22:40:59;;;;;;;16.45;6.20;;;10.60;96.30;;;;;;5071955;28;20065;-51
2022/04/22 22:43:26;;;;;;;18.98;6.60;;;10.50;96.40;;;;;;5073131;28;20041;-50
2022/04/22 22:45:56;;;;;;;21.85;6.97;;;10.50;96.50;;;;;;5073049;28;20399;-51
2022/04/22 22:48:23;;;;;;;17.67;6.82;;;10.50;96.50;;;;;;5074316;28;20049;-53
2022/04/22 22:50:49;;;;;;;13.27;6.28;;;10.50;96.60;;;;;;5071303;28;20086;-56
2022/04/22 22:53:16;;;;;;;17.65;7.47;;;10.50;96.80;;;;;;5073003;28;20102;-51
2022/04/22 22:55:43;;;;;;;17.35;6.78;;;10.40;97.00;;;;;;5074411;28;20446;-54
2022/04/22 22:58:10;;;;;;;15.93;6.28;;;10.50;97.00;;;;;;5067072;28;20111;-48
